createdAt,value
2018-07-09T00:01:09.346Z,1.77
2018-07-09T00:03:41.789Z,1.63
2018-07-09T00:06:14.222Z,1.53
2018-07-09T00:08:46.607Z,1.50
2018-07-09T00:11:18.946Z,1.43
2018-07-09T00:13:51.341Z,1.60
2018-07-09T00:16:24.224Z,1.73
2018-07-09T00:18:56.589Z,1.80
2018-07-09T00:21:28.730Z,1.27
2018-07-09T00:24:01.902Z,1.33
2018-07-09T00:26:34.832Z,1.50
2018-07-09T00:29:07.121Z,1.40
2018-07-09T00:31:40.707Z,1.30
2018-07-09T00:34:13.152Z,1.30
2018-07-09T00:36:45.517Z,1.20
2018-07-09T00:39:18.043Z,1.27
2018-07-09T00:41:52.241Z,1.30
2018-07-09T00:44:25.286Z,1.30
2018-07-09T00:46:57.682Z,2.27
2018-07-09T00:49:30.829Z,1.53
2018-07-09T00:52:03.523Z,1.53
2018-07-09T00:54:36.060Z,1.03
2018-07-09T00:57:08.434Z,1.30
2018-07-09T00:59:40.765Z,1.30
2018-07-09T01:02:13.193Z,1.40
2018-07-09T01:04:46.120Z,1.30
2018-07-09T01:07:18.536Z,1.30
2018-07-09T01:09:51.217Z,1.30
2018-07-09T01:12:23.423Z,1.40
2018-07-09T01:14:56.177Z,1.73
2018-07-09T01:17:29.616Z,1.57
2018-07-09T01:20:01.995Z,1.50
2018-07-09T01:22:35.247Z,1.50
2018-07-09T01:25:07.834Z,1.67
2018-07-09T01:27:40.539Z,1.67
2018-07-09T01:30:16.976Z,2.13
2018-07-09T01:32:49.346Z,2.20
2018-07-09T01:35:23.146Z,2.10
2018-07-09T01:37:55.880Z,2.17
2018-07-09T01:40:28.234Z,1.77
2018-07-09T01:43:00.713Z,2.03
2018-07-09T01:45:33.807Z,1.83
2018-07-09T01:48:06.300Z,1.73
2018-07-09T01:50:39.923Z,1.67
2018-07-09T01:53:12.753Z,1.83
2018-07-09T01:55:45.549Z,2.20
2018-07-09T01:58:18.223Z,3.33
2018-07-09T02:00:51.033Z,2.57
2018-07-09T02:03:23.239Z,2.10
2018-07-09T02:05:56.629Z,2.40
2018-07-09T02:08:29.673Z,2.27
2018-07-09T02:11:02.496Z,1.97
2018-07-09T02:13:35.274Z,1.73
2018-07-09T02:16:08.103Z,1.83
2018-07-09T02:18:41.408Z,1.83
2018-07-09T02:21:13.420Z,1.97
2018-07-09T02:23:45.605Z,1.60
2018-07-09T02:26:18.111Z,1.70
2018-07-09T02:28:50.566Z,1.57
2018-07-09T02:31:22.965Z,1.80
2018-07-09T02:33:55.905Z,1.70
2018-07-09T02:36:27.994Z,1.40
2018-07-09T02:39:00.218Z,1.60
2018-07-09T02:41:33.420Z,2.27
2018-07-09T02:44:06.060Z,1.57
2018-07-09T02:46:38.389Z,1.67
2018-07-09T02:49:11.015Z,1.40
2018-07-09T02:51:43.741Z,1.90
2018-07-09T02:54:16.308Z,1.80
2018-07-09T02:56:49.423Z,1.70
2018-07-09T02:59:21.924Z,1.43
2018-07-09T03:01:55.041Z,1.50
2018-07-09T03:04:27.840Z,1.50
2018-07-09T03:07:00.373Z,2.23
2018-07-09T03:09:32.859Z,1.70
2018-07-09T03:12:05.861Z,1.33
2018-07-09T03:14:38.328Z,1.60
2018-07-09T03:17:10.489Z,1.30
2018-07-09T03:19:43.410Z,1.40
2018-07-09T03:22:16.319Z,1.70
2018-07-09T03:24:49.544Z,1.60
2018-07-09T03:27:22.419Z,1.50
2018-07-09T03:29:54.704Z,1.80
2018-07-09T03:32:27.743Z,1.60
2018-07-09T03:35:00.295Z,1.90
2018-07-09T03:37:33.278Z,1.70
2018-07-09T03:40:06.427Z,1.80
2018-07-09T03:42:39.837Z,1.77
2018-07-09T03:45:12.608Z,2.10
2018-07-09T03:47:45.228Z,1.70
2018-07-09T03:50:17.766Z,1.80
2018-07-09T03:52:50.617Z,1.90
2018-07-09T03:55:23.132Z,2.27
2018-07-09T03:57:55.701Z,1.60
2018-07-09T04:00:28.190Z,1.80
2018-07-09T04:03:01.676Z,1.60
2018-07-09T04:05:35.207Z,1.83
2018-07-09T04:08:08.035Z,1.60
2018-07-09T04:10:40.458Z,1.67
2018-07-09T04:13:12.819Z,1.70
2018-07-09T04:15:45.774Z,2.00
2018-07-09T04:18:18.462Z,1.97
2018-07-09T04:20:51.129Z,2.43
2018-07-09T04:23:23.707Z,2.30
2018-07-09T04:25:56.184Z,2.03
2018-07-09T04:28:28.673Z,2.20
2018-07-09T04:31:01.126Z,1.93
2018-07-09T04:33:32.983Z,1.63
2018-07-09T04:36:05.275Z,1.83
2018-07-09T04:38:37.477Z,2.57
2018-07-09T04:41:09.611Z,1.60
2018-07-09T04:43:42.596Z,1.90
2018-07-09T04:46:14.970Z,2.47
2018-07-09T04:48:47.437Z,1.80
2018-07-09T04:51:20.076Z,1.97
2018-07-09T04:53:52.246Z,2.33
2018-07-09T04:56:24.784Z,2.10
2018-07-09T04:58:57.500Z,2.10
2018-07-09T05:01:30.327Z,2.40
2018-07-09T05:04:02.894Z,2.30
2018-07-09T05:06:35.094Z,2.67
2018-07-09T05:09:08.309Z,2.33
2018-07-09T05:11:40.859Z,1.80
2018-07-09T05:14:12.103Z,2.57
2018-07-09T05:16:44.376Z,2.00
2018-07-09T05:19:15.386Z,2.60
2018-07-09T05:21:48.409Z,2.43
2018-07-09T05:24:20.665Z,2.60
2018-07-09T05:26:53.066Z,2.50
2018-07-09T05:29:25.435Z,2.03
2018-07-09T05:31:57.811Z,2.70
2018-07-09T05:34:30.513Z,2.33
2018-07-09T05:37:03.063Z,2.50
2018-07-09T05:39:35.589Z,2.30
2018-07-09T05:42:08.274Z,2.47
2018-07-09T05:44:41.555Z,2.77
2018-07-09T05:47:14.011Z,2.23
2018-07-09T05:49:46.797Z,2.90
2018-07-09T05:52:19.424Z,2.90
2018-07-09T05:54:52.412Z,2.57
2018-07-09T05:57:25.237Z,2.87
2018-07-09T05:59:57.864Z,3.27
2018-07-09T06:02:30.265Z,2.87
2018-07-09T06:05:02.433Z,3.20
2018-07-09T06:07:34.784Z,2.90
2018-07-09T06:10:07.171Z,2.80
2018-07-09T06:12:39.604Z,3.13
2018-07-09T06:15:11.905Z,2.70
2018-07-09T06:17:44.214Z,3.07
2018-07-09T06:20:16.648Z,2.50
2018-07-09T06:22:49.227Z,2.40
2018-07-09T06:25:21.362Z,2.70
2018-07-09T06:27:53.760Z,3.10
2018-07-09T06:30:26.317Z,2.77
2018-07-09T06:32:58.716Z,2.50
2018-07-09T06:35:30.864Z,2.77
2018-07-09T06:38:03.446Z,2.50
2018-07-09T06:40:36.664Z,2.47
2018-07-09T06:43:09.187Z,3.00
2018-07-09T06:45:42.508Z,2.37
2018-07-09T06:48:15.190Z,2.53
2018-07-09T06:50:47.506Z,2.90
2018-07-09T06:53:20.161Z,2.87
2018-07-09T06:55:52.681Z,2.27
2018-07-09T06:58:24.917Z,2.37
2018-07-09T07:00:57.069Z,3.17
2018-07-09T07:03:30.834Z,2.80
2018-07-09T07:06:03.385Z,3.20
2018-07-09T07:08:35.810Z,3.50
2018-07-09T07:11:08.406Z,2.80
2018-07-09T07:13:40.816Z,2.60
2018-07-09T07:16:13.358Z,2.70
2018-07-09T07:18:45.832Z,2.90
2018-07-09T07:21:18.579Z,2.80
2018-07-09T07:23:51.764Z,2.63
2018-07-09T07:26:24.392Z,3.03
2018-07-09T07:28:56.865Z,3.00
2018-07-09T07:31:29.531Z,3.03
2018-07-09T07:34:02.025Z,3.23
2018-07-09T07:36:34.458Z,2.93
2018-07-09T07:39:07.389Z,2.73
2018-07-09T07:41:39.825Z,2.70
2018-07-09T07:44:12.238Z,2.50
2018-07-09T07:46:44.815Z,3.20
2018-07-09T07:49:17.835Z,3.10
2018-07-09T07:51:50.420Z,3.00
2018-07-09T07:54:22.900Z,3.23
2018-07-09T07:56:55.257Z,3.53
2018-07-09T07:59:27.617Z,3.23
2018-07-09T08:02:00.181Z,3.13
2018-07-09T08:04:32.765Z,3.33
2018-07-09T08:13:53.612Z,3.27
2018-07-09T08:16:26.065Z,2.80
2018-07-09T08:18:58.566Z,3.27
2018-07-09T08:21:30.924Z,3.80
2018-07-09T08:24:03.912Z,3.60
2018-07-09T08:26:36.087Z,3.23
2018-07-09T08:29:08.582Z,3.20
2018-07-09T08:31:41.143Z,4.00
2018-07-09T08:34:13.622Z,3.53
2018-07-09T08:36:46.068Z,3.37
2018-07-09T08:39:18.784Z,4.27
2018-07-09T08:41:51.227Z,3.70
2018-07-09T08:44:24.049Z,3.57
2018-07-09T08:46:56.406Z,4.13
2018-07-09T08:49:28.962Z,4.10
2018-07-09T08:52:01.314Z,3.67
2018-07-09T08:54:33.550Z,4.27
2018-07-09T08:57:06.020Z,4.43
2018-07-09T08:59:38.460Z,4.73
2018-07-09T09:02:10.962Z,4.90
2018-07-09T09:04:43.412Z,4.90
2018-07-09T09:07:15.721Z,4.90
2018-07-09T09:09:48.445Z,4.50
2018-07-09T09:12:20.975Z,4.60
2018-07-09T09:14:53.390Z,4.40
2018-07-09T09:17:25.741Z,4.73
2018-07-09T09:19:58.300Z,5.00
2018-07-09T09:22:30.876Z,4.53
2018-07-09T09:25:03.374Z,4.67
2018-07-09T09:27:34.990Z,4.80
2018-07-09T09:30:07.352Z,4.77
2018-07-09T09:32:39.829Z,4.00
2018-07-09T09:35:12.182Z,4.23
2018-07-09T09:37:44.562Z,3.80
2018-07-09T09:40:16.901Z,4.70
2018-07-09T09:42:50.438Z,3.93
2018-07-09T09:45:23.183Z,4.30
2018-07-09T09:47:55.974Z,4.00
2018-07-09T09:50:28.428Z,4.63
2018-07-09T09:53:01.240Z,3.67
2018-07-09T09:55:33.886Z,3.80
2018-07-09T09:58:06.474Z,4.00
2018-07-09T10:00:43.161Z,4.00
2018-07-09T10:03:15.893Z,3.80
2018-07-09T10:05:49.005Z,4.37
2018-07-09T10:08:21.708Z,3.90
2018-07-09T10:10:54.075Z,4.60
2018-07-09T10:13:26.450Z,4.20
2018-07-09T10:15:58.836Z,4.70
2018-07-09T10:18:31.144Z,4.37
2018-07-09T10:21:03.697Z,4.40
2018-07-09T10:23:36.163Z,4.40
2018-07-09T10:26:08.834Z,4.67
2018-07-09T10:28:41.266Z,4.10
2018-07-09T10:31:13.666Z,3.90
2018-07-09T10:33:46.024Z,4.27
2018-07-09T10:36:18.595Z,3.97
2018-07-09T10:38:51.149Z,4.00
2018-07-09T10:41:23.989Z,4.33
2018-07-09T10:43:56.392Z,3.50
2018-07-09T10:46:28.656Z,3.77
2018-07-09T10:49:01.177Z,3.77
2018-07-09T10:51:33.888Z,3.73
2018-07-09T10:54:06.501Z,3.63
2018-07-09T10:56:39.084Z,4.10
2018-07-09T10:59:10.553Z,4.00
2018-07-09T11:01:43.127Z,3.43
2018-07-09T11:04:15.483Z,4.30
2018-07-09T11:06:47.873Z,4.33
2018-07-09T11:09:20.482Z,3.73
2018-07-09T11:11:53.107Z,5.03
2018-07-09T11:14:25.513Z,5.07
2018-07-09T11:16:58.630Z,5.63
2018-07-09T11:19:30.867Z,4.77
2018-07-09T11:22:03.639Z,6.57
2018-07-09T11:24:36.000Z,5.00
2018-07-09T11:27:08.117Z,5.13
2018-07-09T11:29:40.413Z,4.00
2018-07-09T11:32:12.907Z,4.00
2018-07-09T11:34:45.256Z,3.80
2018-07-09T11:37:17.475Z,3.60
2018-07-09T11:39:49.656Z,3.93
2018-07-09T11:42:22.176Z,3.97
2018-07-09T11:44:54.606Z,3.60
2018-07-09T11:47:26.956Z,3.03
2018-07-09T11:49:59.358Z,3.43
2018-07-09T11:52:31.714Z,3.40
2018-07-09T11:55:04.474Z,3.40
2018-07-09T11:57:36.851Z,4.00
2018-07-09T12:00:09.171Z,3.87
2018-07-09T12:02:41.795Z,3.83
2018-07-09T12:05:14.434Z,3.90
2018-07-09T12:07:46.809Z,3.67
2018-07-09T12:10:19.408Z,3.70
2018-07-09T12:12:52.225Z,4.07
2018-07-09T12:15:24.589Z,3.90
2018-07-09T12:17:56.751Z,4.00
2018-07-09T12:20:29.153Z,3.90
2018-07-09T12:23:01.596Z,4.30
2018-07-09T12:25:34.323Z,3.90
2018-07-09T12:28:07.186Z,3.40
2018-07-09T12:30:39.281Z,3.73
2018-07-09T12:33:11.376Z,4.07
2018-07-09T12:35:43.896Z,3.60
2018-07-09T12:38:16.481Z,3.80
2018-07-09T12:40:48.864Z,4.00
2018-07-09T12:43:21.932Z,3.77
2018-07-09T12:45:54.672Z,3.80
2018-07-09T12:48:27.789Z,4.00
2018-07-09T12:51:00.021Z,3.50
2018-07-09T12:53:32.392Z,3.77
2018-07-09T12:56:04.739Z,4.07
2018-07-09T12:58:37.316Z,4.10
2018-07-09T13:01:09.664Z,4.17
2018-07-09T13:03:42.260Z,4.17
2018-07-09T13:06:14.649Z,3.70
2018-07-09T13:08:47.014Z,3.90
2018-07-09T13:11:19.373Z,3.97
2018-07-09T13:13:51.625Z,3.83
2018-07-09T13:16:23.888Z,4.30
2018-07-09T13:18:56.304Z,3.57
2018-07-09T13:21:28.705Z,3.90
2018-07-09T13:24:01.045Z,4.40
2018-07-09T13:26:33.207Z,3.63
2018-07-09T13:29:06.017Z,4.00
2018-07-09T13:31:38.394Z,4.23
2018-07-09T13:34:10.932Z,3.80
2018-07-09T13:36:43.676Z,3.70
2018-07-09T13:39:16.004Z,4.40
2018-07-09T13:41:48.660Z,4.17
2018-07-09T13:44:21.455Z,4.20
2018-07-09T13:46:54.277Z,4.13
2018-07-09T13:49:27.241Z,4.40
2018-07-09T13:52:04.247Z,4.87
2018-07-09T13:54:40.547Z,4.47
2018-07-09T14:00:05.994Z,4.07
2018-07-09T14:02:37.434Z,4.00
2018-07-09T14:05:10.072Z,4.40
2018-07-09T14:07:42.384Z,5.00
2018-07-09T14:10:15.224Z,4.93
2018-07-09T14:12:47.756Z,4.00
2018-07-09T14:15:23.846Z,4.40
2018-07-09T14:23:42.385Z,4.30
2018-07-09T14:26:14.912Z,4.33
2018-07-09T14:28:53.682Z,4.57
2018-07-09T14:48:43.791Z,4.50
2018-07-09T14:51:16.367Z,5.10
2018-07-09T14:53:48.799Z,4.40
2018-07-09T14:56:21.021Z,4.87
2018-07-09T14:58:53.744Z,5.30
2018-07-09T15:01:25.911Z,5.17
2018-07-09T15:03:58.526Z,4.67
2018-07-09T15:06:30.918Z,4.60
2018-07-09T15:09:10.453Z,5.20
2018-07-09T15:11:43.002Z,5.50
2018-07-09T15:14:15.640Z,5.13
2018-07-09T15:16:47.967Z,4.87
2018-07-09T15:19:20.371Z,4.27
2018-07-09T15:21:53.335Z,5.00
2018-07-09T15:24:25.961Z,4.80
2018-07-09T15:26:58.409Z,4.80
2018-07-09T15:29:30.841Z,4.60
2018-07-09T15:32:12.638Z,4.43
2018-07-09T15:34:45.208Z,4.90
2018-07-09T15:37:17.818Z,4.00
2018-07-09T15:39:50.261Z,5.03
2018-07-09T15:42:21.674Z,4.30
2018-07-09T15:44:54.809Z,4.13
2018-07-09T15:47:26.066Z,4.00
2018-07-09T15:49:58.837Z,5.20
2018-07-09T15:52:31.445Z,4.73
2018-07-09T15:55:03.911Z,4.70
2018-07-09T15:57:36.098Z,4.17
2018-07-09T16:00:08.885Z,4.57
2018-07-09T16:02:40.601Z,3.97
2018-07-09T16:05:12.960Z,4.90
2018-07-09T16:07:45.384Z,4.70
2018-07-09T16:10:17.533Z,4.47
2018-07-09T16:12:50.097Z,4.23
2018-07-09T16:15:22.669Z,5.00
2018-07-09T16:17:54.840Z,4.33
2018-07-09T16:20:27.409Z,4.33
2018-07-09T16:23:00.150Z,3.90
2018-07-09T16:25:32.491Z,4.50
2018-07-09T16:28:04.744Z,4.20
2018-07-09T16:30:37.662Z,4.53
2018-07-09T16:33:10.080Z,4.90
2018-07-09T16:35:42.642Z,4.63
2018-07-09T16:38:14.984Z,4.30
2018-07-09T16:40:47.379Z,3.80
2018-07-09T16:43:19.795Z,4.50
2018-07-09T16:45:52.093Z,4.23
2018-07-09T16:48:24.369Z,4.50
2018-07-09T16:50:57.222Z,4.50
2018-07-09T16:53:29.617Z,4.53
2018-07-09T16:56:02.140Z,4.63
2018-07-09T16:58:34.495Z,3.87
2018-07-09T17:01:06.828Z,5.70
2018-07-09T17:03:39.488Z,4.67
2018-07-09T17:06:11.791Z,4.93
2018-07-09T17:08:44.383Z,4.87
2018-07-09T17:11:16.973Z,4.93
2018-07-09T17:13:49.705Z,4.67
2018-07-09T17:16:22.283Z,5.57
2018-07-09T17:18:55.625Z,4.97
2018-07-09T17:21:29.399Z,4.87
2018-07-09T17:24:02.974Z,4.87
2018-07-09T17:26:35.950Z,5.33
2018-07-09T17:29:10.017Z,5.27
2018-07-09T17:31:43.202Z,5.07
2018-07-09T17:34:16.726Z,5.10
2018-07-09T17:36:49.864Z,4.57
2018-07-09T17:39:22.991Z,5.27
2018-07-09T17:41:57.494Z,4.40
2018-07-09T17:44:32.057Z,4.47
2018-07-09T17:47:06.197Z,4.90
2018-07-09T17:49:39.156Z,4.37
2018-07-09T17:52:12.713Z,4.50
2018-07-09T17:54:46.730Z,5.30
2018-07-09T17:57:19.428Z,4.47
2018-07-09T17:59:51.755Z,5.30
2018-07-09T18:02:24.340Z,5.63
2018-07-09T18:04:56.708Z,5.40
2018-07-09T18:07:29.151Z,5.37
2018-07-09T18:10:01.691Z,5.70
2018-07-09T18:12:34.430Z,5.70
2018-07-09T18:15:07.179Z,6.00
2018-07-09T18:17:39.614Z,5.37
2018-07-09T18:20:12.160Z,4.90
2018-07-09T18:22:44.780Z,4.67
2018-07-09T18:25:17.174Z,5.30
2018-07-09T18:27:48.813Z,6.40
2018-07-09T18:30:21.590Z,7.20
2018-07-09T18:32:54.093Z,6.50
2018-07-09T18:35:26.692Z,6.53
2018-07-09T18:37:59.606Z,6.87
2018-07-09T18:40:31.976Z,6.27
2018-07-09T18:43:04.521Z,5.80
2018-07-09T18:45:38.113Z,6.70
2018-07-09T18:48:10.901Z,6.93
2018-07-09T18:50:43.133Z,6.60
2018-07-09T18:53:16.248Z,7.80
2018-07-09T18:55:48.879Z,7.23
2018-07-09T18:58:21.287Z,6.47
2018-07-09T19:00:53.892Z,6.83
2018-07-09T19:03:26.249Z,6.70
2018-07-09T19:07:08.269Z,7.03
2018-07-09T19:09:41.246Z,7.00
2018-07-09T19:12:13.838Z,7.37
2018-07-09T19:14:47.713Z,7.20
2018-07-09T19:18:01.931Z,6.17
2018-07-09T19:20:43.649Z,6.13
2018-07-09T19:23:13.575Z,8.40
2018-07-09T19:25:43.932Z,7.17
2018-07-09T19:28:13.460Z,8.20
2018-07-09T19:30:43.119Z,7.50
2018-07-09T19:33:12.681Z,8.00
2018-07-09T19:35:42.423Z,7.23
2018-07-09T19:38:12.184Z,7.80
2018-07-09T19:40:41.628Z,6.43
2018-07-09T19:43:11.268Z,6.30
2018-07-09T19:45:41.065Z,7.57
2018-07-09T19:48:10.880Z,7.43
2018-07-09T19:50:40.351Z,7.60
2018-07-09T19:53:10.081Z,7.37
2018-07-09T19:55:40.463Z,7.70
2018-07-09T19:58:10.583Z,6.67
2018-07-09T20:00:40.577Z,6.30
2018-07-09T20:03:10.514Z,7.53
2018-07-09T20:05:40.253Z,7.73
2018-07-09T20:08:09.957Z,7.40
2018-07-09T20:10:43.810Z,7.87
2018-07-09T20:13:18.351Z,7.67
2018-07-09T20:15:52.161Z,8.07
2018-07-09T20:18:21.897Z,7.50
2018-07-09T20:20:51.473Z,7.83
2018-07-09T20:23:21.596Z,8.23
2018-07-09T20:25:51.714Z,8.50
2018-07-09T20:28:21.374Z,7.80
2018-07-09T20:30:51.518Z,8.03
2018-07-09T20:33:21.214Z,7.90
2018-07-09T20:35:51.542Z,7.67
2018-07-09T20:38:21.216Z,6.70
2018-07-09T20:40:50.762Z,7.43
2018-07-09T20:43:20.895Z,8.50
2018-07-09T20:45:50.576Z,7.43
2018-07-09T20:48:19.931Z,7.60
2018-07-09T20:50:49.650Z,7.27
2018-07-09T20:53:19.264Z,7.60
2018-07-09T20:55:49.240Z,7.70
2018-07-09T20:58:18.892Z,7.00
2018-07-09T21:00:48.412Z,8.17
2018-07-09T21:03:18.191Z,7.93
2018-07-09T21:05:47.845Z,7.70
2018-07-09T21:08:17.347Z,6.70
2018-07-09T21:10:47.080Z,5.70
2018-07-09T21:13:16.948Z,8.17
2018-07-09T21:15:46.688Z,7.60
2018-07-09T21:18:16.373Z,7.03
2018-07-09T21:20:46.077Z,6.90
2018-07-09T21:23:15.276Z,7.73
2018-07-09T21:25:44.974Z,6.90
2018-07-09T21:28:14.686Z,6.70
2018-07-09T21:30:44.607Z,5.70
2018-07-09T21:33:14.362Z,7.63
2018-07-09T21:35:43.993Z,6.93
2018-07-09T21:38:13.945Z,7.50
2018-07-09T21:40:43.462Z,7.07
2018-07-09T21:43:13.140Z,5.70
2018-07-09T21:45:43.270Z,7.00
2018-07-09T21:48:13.198Z,7.50
2018-07-09T21:50:42.887Z,7.27
2018-07-09T21:53:12.540Z,6.20
2018-07-09T21:55:42.200Z,7.20
2018-07-09T21:58:11.951Z,7.27
2018-07-09T22:00:41.451Z,6.83
2018-07-09T22:03:11.141Z,7.50
2018-07-09T22:05:41.070Z,7.47
2018-07-09T22:08:10.600Z,6.60
2018-07-09T22:10:40.100Z,6.67
2018-07-09T22:13:09.772Z,7.30
2018-07-09T22:15:39.316Z,7.20
2018-07-09T22:18:08.877Z,7.30
2018-07-09T22:20:38.786Z,7.50
2018-07-09T22:23:08.323Z,7.33
2018-07-09T22:25:38.015Z,6.90
2018-07-09T22:28:07.859Z,6.20
2018-07-09T22:30:40.692Z,7.60
2018-07-09T22:33:13.213Z,7.47
2018-07-09T22:35:45.552Z,7.43
2018-07-09T22:38:17.994Z,6.87
2018-07-09T22:40:50.507Z,7.23
2018-07-09T22:43:32.412Z,6.70
2018-07-09T22:46:04.765Z,7.57
2018-07-09T22:48:37.219Z,7.13
2018-07-09T22:51:09.666Z,7.63
2018-07-09T22:53:41.961Z,7.87
2018-07-09T22:56:15.119Z,7.50
2018-07-09T22:58:48.142Z,6.57
2018-07-09T23:01:20.423Z,6.80
2018-07-09T23:03:53.003Z,7.00
2018-07-09T23:06:25.568Z,6.70
2018-07-09T23:10:07.024Z,5.60
2018-07-09T23:13:17.117Z,5.87
2018-07-09T23:15:59.020Z,6.63
2018-07-09T23:19:08.016Z,6.30
2018-07-09T23:22:22.138Z,6.73
2018-07-09T23:24:51.543Z,6.07
2018-07-09T23:27:21.203Z,5.70
2018-07-09T23:29:50.956Z,5.80
2018-07-09T23:32:20.855Z,6.50
2018-07-09T23:34:50.335Z,6.10
2018-07-09T23:37:20.054Z,6.37
2018-07-09T23:39:49.788Z,5.67
2018-07-09T23:42:19.484Z,4.80
2018-07-09T23:44:49.174Z,5.67
2018-07-09T23:47:18.655Z,5.10
2018-07-09T23:49:48.842Z,5.00
2018-07-09T23:52:18.713Z,5.53
2018-07-09T23:54:48.305Z,6.00
2018-07-09T23:58:37.362Z,5.50
